sensor_id;sensor_type;location;lat;lon;timestamp;P1;durP1;ratioP1;P2;durP2;ratioP2
42590;SDS011;28218;53.342;-6.216;2022-07-29T00:02:25;14.52;;;8.95;;
42590;SDS011;28218;53.342;-6.216;2022-07-29T00:04:54;12.13;;;8.15;;
42590;SDS011;28218;53.342;-6.216;2022-07-29T00:07:22;12.70;;;8.35;;
42590;SDS011;28218;53.342;-6.216;2022-07-29T00:09:51;9.15;;;6.90;;
42590;SDS011;28218;53.342;-6.216;2022-07-29T00:12:20;12.45;;;6.53;;
42590;SDS011;28218;53.342;-6.216;2022-07-29T00:14:54;10.85;;;6.30;;
42590;SDS011;28218;53.342;-6.216;2022-07-29T00:17:22;7.70;;;5.75;;
42590;SDS011;28218;53.342;-6.216;2022-07-29T00:19:51;7.38;;;5.55;;
42590;SDS011;28218;53.342;-6.216;2022-07-29T00:22:19;10.65;;;5.22;;
42590;SDS011;28218;53.342;-6.216;2022-07-29T00:24:48;6.38;;;4.22;;
42590;SDS011;28218;53.342;-6.216;2022-07-29T00:27:16;6.18;;;4.47;;
42590;SDS011;28218;53.342;-6.216;2022-07-29T00:29:45;10.07;;;3.92;;
42590;SDS011;28218;53.342;-6.216;2022-07-29T00:32:14;4.13;;;3.40;;
42590;SDS011;28218;53.342;-6.216;2022-07-29T00:34:43;6.75;;;4.18;;
42590;SDS011;28218;53.342;-6.216;2022-07-29T00:37:28;9.18;;;3.35;;
42590;SDS011;28218;53.342;-6.216;2022-07-29T00:39:57;5.47;;;3.55;;
42590;SDS011;28218;53.342;-6.216;2022-07-29T00:42:25;4.18;;;3.13;;
42590;SDS011;28218;53.342;-6.216;2022-07-29T00:44:53;3.60;;;2.70;;
42590;SDS011;28218;53.342;-6.216;2022-07-29T00:47:23;3.42;;;2.58;;
42590;SDS011;28218;53.342;-6.216;2022-07-29T00:49:51;5.80;;;2.95;;
42590;SDS011;28218;53.342;-6.216;2022-07-29T00:52:20;4.05;;;2.45;;
42590;SDS011;28218;53.342;-6.216;2022-07-29T00:54:48;6.65;;;2.72;;
42590;SDS011;28218;53.342;-6.216;2022-07-29T00:57:16;3.22;;;2.72;;
42590;SDS011;28218;53.342;-6.216;2022-07-29T00:59:45;2.50;;;2.30;;
42590;SDS011;28218;53.342;-6.216;2022-07-29T01:02:13;3.63;;;2.50;;
42590;SDS011;28218;53.342;-6.216;2022-07-29T01:04:43;4.68;;;2.55;;
42590;SDS011;28218;53.342;-6.216;2022-07-29T01:07:11;4.05;;;2.17;;
42590;SDS011;28218;53.342;-6.216;2022-07-29T01:09:40;3.60;;;2.28;;
42590;SDS011;28218;53.342;-6.216;2022-07-29T01:12:13;7.50;;;2.47;;
42590;SDS011;28218;53.342;-6.216;2022-07-29T01:14:45;3.47;;;2.20;;
42590;SDS011;28218;53.342;-6.216;2022-07-29T01:17:17;1.80;;;1.70;;
42590;SDS011;28218;53.342;-6.216;2022-07-29T01:19:52;2.28;;;2.05;;
42590;SDS011;28218;53.342;-6.216;2022-07-29T01:22:30;2.55;;;2.25;;
42590;SDS011;28218;53.342;-6.216;2022-07-29T01:31:38;3.95;;;2.15;;
42590;SDS011;28218;53.342;-6.216;2022-07-29T01:34:27;3.38;;;2.25;;
42590;SDS011;28218;53.342;-6.216;2022-07-29T01:37:01;5.97;;;2.45;;
42590;SDS011;28218;53.342;-6.216;2022-07-29T01:39:36;5.45;;;2.50;;
42590;SDS011;28218;53.342;-6.216;2022-07-29T01:42:08;5.68;;;2.17;;
42590;SDS011;28218;53.342;-6.216;2022-07-29T01:44:46;3.65;;;2.30;;
42590;SDS011;28218;53.342;-6.216;2022-07-29T01:47:23;1.98;;;1.77;;
42590;SDS011;28218;53.342;-6.216;2022-07-29T01:49:56;3.97;;;2.00;;
42590;SDS011;28218;53.342;-6.216;2022-07-29T01:52:30;5.82;;;2.20;;
42590;SDS011;28218;53.342;-6.216;2022-07-29T01:55:03;3.33;;;2.00;;
42590;SDS011;28218;53.342;-6.216;2022-07-29T01:57:35;3.70;;;2.22;;
42590;SDS011;28218;53.342;-6.216;2022-07-29T02:00:09;3.78;;;2.50;;
42590;SDS011;28218;53.342;-6.216;2022-07-29T02:02:40;2.58;;;2.38;;
42590;SDS011;28218;53.342;-6.216;2022-07-29T02:05:12;3.03;;;2.20;;
42590;SDS011;28218;53.342;-6.216;2022-07-29T02:07:43;6.88;;;1.98;;
42590;SDS011;28218;53.342;-6.216;2022-07-29T02:10:13;3.92;;;2.47;;
42590;SDS011;28218;53.342;-6.216;2022-07-29T02:12:51;2.80;;;2.03;;
42590;SDS011;28218;53.342;-6.216;2022-07-29T02:15:24;5.35;;;2.72;;
42590;SDS011;28218;53.342;-6.216;2022-07-29T02:17:56;4.57;;;3.13;;
42590;SDS011;28218;53.342;-6.216;2022-07-29T02:20:28;8.45;;;2.92;;
42590;SDS011;28218;53.342;-6.216;2022-07-29T02:22:58;6.10;;;3.22;;
42590;SDS011;28218;53.342;-6.216;2022-07-29T02:25:28;5.10;;;3.42;;
42590;SDS011;28218;53.342;-6.216;2022-07-29T02:28:03;4.80;;;4.32;;
42590;SDS011;28218;53.342;-6.216;2022-07-29T02:30:36;6.70;;;4.07;;
42590;SDS011;28218;53.342;-6.216;2022-07-29T02:33:07;4.32;;;3.10;;
42590;SDS011;28218;53.342;-6.216;2022-07-29T02:35:37;4.78;;;3.30;;
42590;SDS011;28218;53.342;-6.216;2022-07-29T02:38:08;4.03;;;3.22;;
42590;SDS011;28218;53.342;-6.216;2022-07-29T02:40:57;7.45;;;2.90;;
42590;SDS011;28218;53.342;-6.216;2022-07-29T02:43:27;3.42;;;2.58;;
42590;SDS011;28218;53.342;-6.216;2022-07-29T02:45:59;4.13;;;2.80;;
42590;SDS011;28218;53.342;-6.216;2022-07-29T02:48:38;2.85;;;2.42;;
42590;SDS011;28218;53.342;-6.216;2022-07-29T02:51:12;2.80;;;2.60;;
42590;SDS011;28218;53.342;-6.216;2022-07-29T02:54:07;5.20;;;2.28;;
42590;SDS011;28218;53.342;-6.216;2022-07-29T02:56:37;2.58;;;2.30;;
42590;SDS011;28218;53.342;-6.216;2022-07-29T02:59:09;3.47;;;2.00;;
42590;SDS011;28218;53.342;-6.216;2022-07-29T03:01:42;3.83;;;2.08;;
42590;SDS011;28218;53.342;-6.216;2022-07-29T03:04:11;2.30;;;1.85;;
42590;SDS011;28218;53.342;-6.216;2022-07-29T03:06:42;2.58;;;2.15;;
42590;SDS011;28218;53.342;-6.216;2022-07-29T03:09:11;4.55;;;2.20;;
42590;SDS011;28218;53.342;-6.216;2022-07-29T03:11:42;2.38;;;1.88;;
42590;SDS011;28218;53.342;-6.216;2022-07-29T03:14:16;3.10;;;1.88;;
42590;SDS011;28218;53.342;-6.216;2022-07-29T03:16:48;4.78;;;1.85;;
42590;SDS011;28218;53.342;-6.216;2022-07-29T03:19:18;4.60;;;2.35;;
42590;SDS011;28218;53.342;-6.216;2022-07-29T03:21:48;2.75;;;1.60;;
42590;SDS011;28218;53.342;-6.216;2022-07-29T03:24:26;3.13;;;1.70;;
42590;SDS011;28218;53.342;-6.216;2022-07-29T03:26:56;6.85;;;2.15;;
42590;SDS011;28218;53.342;-6.216;2022-07-29T03:29:25;2.50;;;1.65;;
42590;SDS011;28218;53.342;-6.216;2022-07-29T03:32:00;2.38;;;1.92;;
42590;SDS011;28218;53.342;-6.216;2022-07-29T03:34:33;2.13;;;1.92;;
42590;SDS011;28218;53.342;-6.216;2022-07-29T03:37:02;2.85;;;2.10;;
42590;SDS011;28218;53.342;-6.216;2022-07-29T03:39:34;2.25;;;2.05;;
42590;SDS011;28218;53.342;-6.216;2022-07-29T03:42:05;2.10;;;1.85;;
42590;SDS011;28218;53.342;-6.216;2022-07-29T03:44:36;30.27;;;2.60;;
42590;SDS011;28218;53.342;-6.216;2022-07-29T03:47:07;5.47;;;2.42;;
42590;SDS011;28218;53.342;-6.216;2022-07-29T03:49:37;2.55;;;2.33;;
42590;SDS011;28218;53.342;-6.216;2022-07-29T03:52:07;4.88;;;1.95;;
42590;SDS011;28218;53.342;-6.216;2022-07-29T03:54:35;4.15;;;2.00;;
42590;SDS011;28218;53.342;-6.216;2022-07-29T03:57:04;3.78;;;2.05;;
42590;SDS011;28218;53.342;-6.216;2022-07-29T03:59:34;4.87;;;2.20;;
42590;SDS011;28218;53.342;-6.216;2022-07-29T04:02:04;2.13;;;1.67;;
42590;SDS011;28218;53.342;-6.216;2022-07-29T04:04:37;2.88;;;1.73;;
42590;SDS011;28218;53.342;-6.216;2022-07-29T04:07:06;2.88;;;1.70;;
42590;SDS011;28218;53.342;-6.216;2022-07-29T04:09:34;3.75;;;1.95;;
42590;SDS011;28218;53.342;-6.216;2022-07-29T04:12:02;3.13;;;1.80;;
42590;SDS011;28218;53.342;-6.216;2022-07-29T04:14:32;2.72;;;1.70;;
42590;SDS011;28218;53.342;-6.216;2022-07-29T04:17:01;2.47;;;2.00;;
42590;SDS011;28218;53.342;-6.216;2022-07-29T04:19:31;5.70;;;1.70;;
42590;SDS011;28218;53.342;-6.216;2022-07-29T04:22:01;2.38;;;1.77;;
42590;SDS011;28218;53.342;-6.216;2022-07-29T04:24:30;3.08;;;1.75;;
42590;SDS011;28218;53.342;-6.216;2022-07-29T04:26:58;2.28;;;1.58;;
42590;SDS011;28218;53.342;-6.216;2022-07-29T04:29:26;3.25;;;1.45;;
42590;SDS011;28218;53.342;-6.216;2022-07-29T04:31:54;2.83;;;1.88;;
42590;SDS011;28218;53.342;-6.216;2022-07-29T04:34:23;6.95;;;2.00;;
42590;SDS011;28218;53.342;-6.216;2022-07-29T04:36:53;2.63;;;1.85;;
42590;SDS011;28218;53.342;-6.216;2022-07-29T04:39:23;4.63;;;1.63;;
42590;SDS011;28218;53.342;-6.216;2022-07-29T04:41:55;2.40;;;1.40;;
42590;SDS011;28218;53.342;-6.216;2022-07-29T04:44:24;5.07;;;2.42;;
42590;SDS011;28218;53.342;-6.216;2022-07-29T04:46:55;4.72;;;1.70;;
42590;SDS011;28218;53.342;-6.216;2022-07-29T04:49:24;2.03;;;1.67;;
42590;SDS011;28218;53.342;-6.216;2022-07-29T04:51:52;2.83;;;1.83;;
42590;SDS011;28218;53.342;-6.216;2022-07-29T04:54:21;4.95;;;2.03;;
42590;SDS011;28218;53.342;-6.216;2022-07-29T04:56:52;2.63;;;1.80;;
42590;SDS011;28218;53.342;-6.216;2022-07-29T04:59:20;2.70;;;1.95;;
42590;SDS011;28218;53.342;-6.216;2022-07-29T05:01:49;2.80;;;1.95;;
42590;SDS011;28218;53.342;-6.216;2022-07-29T05:04:17;5.15;;;1.60;;
42590;SDS011;28218;53.342;-6.216;2022-07-29T05:06:46;3.85;;;1.52;;
42590;SDS011;28218;53.342;-6.216;2022-07-29T05:09:14;8.38;;;3.33;;
42590;SDS011;28218;53.342;-6.216;2022-07-29T05:11:43;5.78;;;3.55;;
42590;SDS011;28218;53.342;-6.216;2022-07-29T05:14:12;7.80;;;3.63;;
42590;SDS011;28218;53.342;-6.216;2022-07-29T05:16:41;3.95;;;3.55;;
42590;SDS011;28218;53.342;-6.216;2022-07-29T05:19:09;13.43;;;3.35;;
42590;SDS011;28218;53.342;-6.216;2022-07-29T05:21:40;7.05;;;3.28;;
42590;SDS011;28218;53.342;-6.216;2022-07-29T05:24:09;6.93;;;2.78;;
42590;SDS011;28218;53.342;-6.216;2022-07-29T05:26:38;5.78;;;2.80;;
42590;SDS011;28218;53.342;-6.216;2022-07-29T05:29:07;3.15;;;2.55;;
42590;SDS011;28218;53.342;-6.216;2022-07-29T05:31:57;6.32;;;3.83;;
42590;SDS011;28218;53.342;-6.216;2022-07-29T05:34:25;3.60;;;2.95;;
42590;SDS011;28218;53.342;-6.216;2022-07-29T05:36:53;5.50;;;3.00;;
42590;SDS011;28218;53.342;-6.216;2022-07-29T05:39:22;12.23;;;2.95;;
42590;SDS011;28218;53.342;-6.216;2022-07-29T05:42:11;4.50;;;2.92;;
42590;SDS011;28218;53.342;-6.216;2022-07-29T05:44:39;6.13;;;3.05;;
42590;SDS011;28218;53.342;-6.216;2022-07-29T05:47:09;4.68;;;3.00;;
42590;SDS011;28218;53.342;-6.216;2022-07-29T05:49:37;4.03;;;2.40;;
42590;SDS011;28218;53.342;-6.216;2022-07-29T05:52:06;3.90;;;1.90;;
42590;SDS011;28218;53.342;-6.216;2022-07-29T05:54:35;3.17;;;1.80;;
42590;SDS011;28218;53.342;-6.216;2022-07-29T05:57:03;5.10;;;3.33;;
42590;SDS011;28218;53.342;-6.216;2022-07-29T05:59:35;8.70;;;3.90;;
42590;SDS011;28218;53.342;-6.216;2022-07-29T06:02:05;4.10;;;1.90;;
42590;SDS011;28218;53.342;-6.216;2022-07-29T06:04:34;2.97;;;1.58;;
42590;SDS011;28218;53.342;-6.216;2022-07-29T06:07:03;2.20;;;2.03;;
42590;SDS011;28218;53.342;-6.216;2022-07-29T06:09:32;2.90;;;2.10;;
42590;SDS011;28218;53.342;-6.216;2022-07-29T06:12:02;3.83;;;1.77;;
42590;SDS011;28218;53.342;-6.216;2022-07-29T06:14:30;5.25;;;2.00;;
42590;SDS011;28218;53.342;-6.216;2022-07-29T06:16:59;4.68;;;2.30;;
42590;SDS011;28218;53.342;-6.216;2022-07-29T06:19:27;2.28;;;1.75;;
42590;SDS011;28218;53.342;-6.216;2022-07-29T06:21:57;2.67;;;2.22;;
42590;SDS011;28218;53.342;-6.216;2022-07-29T06:24:25;2.63;;;2.05;;
42590;SDS011;28218;53.342;-6.216;2022-07-29T06:26:53;3.83;;;2.08;;
42590;SDS011;28218;53.342;-6.216;2022-07-29T06:29:22;7.32;;;2.03;;
42590;SDS011;28218;53.342;-6.216;2022-07-29T06:31:51;5.95;;;2.03;;
42590;SDS011;28218;53.342;-6.216;2022-07-29T06:34:19;4.63;;;1.77;;
42590;SDS011;28218;53.342;-6.216;2022-07-29T06:36:48;4.30;;;2.17;;
42590;SDS011;28218;53.342;-6.216;2022-07-29T06:39:19;2.63;;;2.17;;
42590;SDS011;28218;53.342;-6.216;2022-07-29T06:41:47;2.35;;;2.13;;
42590;SDS011;28218;53.342;-6.216;2022-07-29T06:44:17;4.10;;;2.03;;
42590;SDS011;28218;53.342;-6.216;2022-07-29T06:46:46;8.73;;;2.40;;
42590;SDS011;28218;53.342;-6.216;2022-07-29T06:49:16;3.55;;;1.95;;
42590;SDS011;28218;53.342;-6.216;2022-07-29T06:51:44;9.00;;;2.58;;
42590;SDS011;28218;53.342;-6.216;2022-07-29T06:54:13;5.25;;;3.08;;
42590;SDS011;28218;53.342;-6.216;2022-07-29T06:56:43;5.97;;;2.42;;
42590;SDS011;28218;53.342;-6.216;2022-07-29T06:59:11;6.50;;;2.95;;
42590;SDS011;28218;53.342;-6.216;2022-07-29T07:01:41;4.60;;;2.28;;
42590;SDS011;28218;53.342;-6.216;2022-07-29T07:04:11;6.93;;;3.20;;
42590;SDS011;28218;53.342;-6.216;2022-07-29T07:06:40;5.53;;;3.05;;
42590;SDS011;28218;53.342;-6.216;2022-07-29T07:09:08;13.65;;;2.78;;
42590;SDS011;28218;53.342;-6.216;2022-07-29T07:11:37;8.63;;;3.40;;
42590;SDS011;28218;53.342;-6.216;2022-07-29T07:14:06;6.65;;;2.58;;
42590;SDS011;28218;53.342;-6.216;2022-07-29T07:16:34;9.57;;;2.28;;
42590;SDS011;28218;53.342;-6.216;2022-07-29T07:19:03;4.13;;;1.88;;
42590;SDS011;28218;53.342;-6.216;2022-07-29T07:21:32;5.45;;;2.33;;
42590;SDS011;28218;53.342;-6.216;2022-07-29T07:24:01;13.90;;;3.00;;
42590;SDS011;28218;53.342;-6.216;2022-07-29T07:26:29;10.88;;;3.78;;
42590;SDS011;28218;53.342;-6.216;2022-07-29T07:28:58;10.20;;;2.03;;
42590;SDS011;28218;53.342;-6.216;2022-07-29T07:31:28;8.70;;;2.50;;
42590;SDS011;28218;53.342;-6.216;2022-07-29T07:33:57;7.38;;;1.70;;
42590;SDS011;28218;53.342;-6.216;2022-07-29T07:36:25;2.33;;;1.40;;
42590;SDS011;28218;53.342;-6.216;2022-07-29T07:38:53;3.33;;;1.75;;
42590;SDS011;28218;53.342;-6.216;2022-07-29T07:41:22;8.52;;;1.85;;
42590;SDS011;28218;53.342;-6.216;2022-07-29T07:43:50;3.60;;;1.90;;
42590;SDS011;28218;53.342;-6.216;2022-07-29T07:46:18;5.47;;;1.55;;
42590;SDS011;28218;53.342;-6.216;2022-07-29T07:48:48;5.60;;;1.70;;
42590;SDS011;28218;53.342;-6.216;2022-07-29T07:53:46;3.53;;;1.80;;
42590;SDS011;28218;53.342;-6.216;2022-07-29T07:56:16;6.18;;;1.60;;
42590;SDS011;28218;53.342;-6.216;2022-07-29T07:58:45;3.08;;;1.73;;
42590;SDS011;28218;53.342;-6.216;2022-07-29T08:01:13;6.95;;;1.90;;
42590;SDS011;28218;53.342;-6.216;2022-07-29T08:03:45;5.50;;;1.67;;
42590;SDS011;28218;53.342;-6.216;2022-07-29T08:06:15;3.90;;;1.70;;
42590;SDS011;28218;53.342;-6.216;2022-07-29T08:08:43;6.75;;;1.50;;
42590;SDS011;28218;53.342;-6.216;2022-07-29T08:11:11;8.93;;;1.45;;
42590;SDS011;28218;53.342;-6.216;2022-07-29T08:13:41;5.20;;;1.73;;
42590;SDS011;28218;53.342;-6.216;2022-07-29T08:16:09;4.55;;;1.13;;
42590;SDS011;28218;53.342;-6.216;2022-07-29T08:18:42;11.00;;;1.98;;
42590;SDS011;28218;53.342;-6.216;2022-07-29T08:21:11;5.28;;;1.88;;
42590;SDS011;28218;53.342;-6.216;2022-07-29T08:23:42;5.85;;;1.85;;
42590;SDS011;28218;53.342;-6.216;2022-07-29T08:26:25;5.00;;;2.20;;
42590;SDS011;28218;53.342;-6.216;2022-07-29T08:28:53;2.85;;;1.23;;
42590;SDS011;28218;53.342;-6.216;2022-07-29T08:31:21;4.30;;;1.75;;
42590;SDS011;28218;53.342;-6.216;2022-07-29T08:33:50;4.10;;;1.65;;
42590;SDS011;28218;53.342;-6.216;2022-07-29T08:36:18;5.93;;;2.03;;
42590;SDS011;28218;53.342;-6.216;2022-07-29T08:38:49;4.82;;;1.67;;
42590;SDS011;28218;53.342;-6.216;2022-07-29T08:41:18;9.57;;;1.90;;
42590;SDS011;28218;53.342;-6.216;2022-07-29T08:43:47;2.63;;;1.35;;
42590;SDS011;28218;53.342;-6.216;2022-07-29T08:46:15;3.65;;;1.88;;
42590;SDS011;28218;53.342;-6.216;2022-07-29T08:48:44;3.72;;;1.80;;
42590;SDS011;28218;53.342;-6.216;2022-07-29T08:51:13;5.55;;;2.55;;
42590;SDS011;28218;53.342;-6.216;2022-07-29T08:53:43;3.08;;;1.30;;
42590;SDS011;28218;53.342;-6.216;2022-07-29T08:56:15;5.35;;;1.63;;
42590;SDS011;28218;53.342;-6.216;2022-07-29T08:58:45;2.70;;;1.98;;
42590;SDS011;28218;53.342;-6.216;2022-07-29T09:01:21;3.80;;;1.85;;
42590;SDS011;28218;53.342;-6.216;2022-07-29T09:04:03;2.13;;;1.55;;
42590;SDS011;28218;53.342;-6.216;2022-07-29T09:06:34;3.30;;;2.00;;
42590;SDS011;28218;53.342;-6.216;2022-07-29T09:09:04;6.28;;;1.95;;
42590;SDS011;28218;53.342;-6.216;2022-07-29T09:11:34;3.35;;;1.60;;
42590;SDS011;28218;53.342;-6.216;2022-07-29T09:14:02;3.13;;;1.40;;
42590;SDS011;28218;53.342;-6.216;2022-07-29T09:16:43;4.18;;;1.90;;
42590;SDS011;28218;53.342;-6.216;2022-07-29T09:19:19;6.35;;;1.92;;
42590;SDS011;28218;53.342;-6.216;2022-07-29T09:21:52;1.90;;;1.40;;
42590;SDS011;28218;53.342;-6.216;2022-07-29T09:27:20;7.00;;;1.80;;
42590;SDS011;28218;53.342;-6.216;2022-07-29T09:29:58;2.40;;;1.90;;
42590;SDS011;28218;53.342;-6.216;2022-07-29T09:32:27;10.90;;;3.85;;
42590;SDS011;28218;53.342;-6.216;2022-07-29T09:35:17;2.70;;;2.03;;
42590;SDS011;28218;53.342;-6.216;2022-07-29T09:37:48;3.28;;;2.42;;
42590;SDS011;28218;53.342;-6.216;2022-07-29T09:40:17;2.35;;;2.05;;
42590;SDS011;28218;53.342;-6.216;2022-07-29T09:42:48;3.00;;;2.22;;
42590;SDS011;28218;53.342;-6.216;2022-07-29T09:45:26;4.13;;;2.60;;
42590;SDS011;28218;53.342;-6.216;2022-07-29T09:47:56;10.52;;;2.20;;
42590;SDS011;28218;53.342;-6.216;2022-07-29T09:50:36;5.43;;;2.00;;
42590;SDS011;28218;53.342;-6.216;2022-07-29T09:53:06;3.88;;;2.13;;
42590;SDS011;28218;53.342;-6.216;2022-07-29T09:55:45;4.35;;;2.20;;
42590;SDS011;28218;53.342;-6.216;2022-07-29T09:58:19;5.32;;;2.53;;
42590;SDS011;28218;53.342;-6.216;2022-07-29T10:00:49;2.88;;;2.10;;
42590;SDS011;28218;53.342;-6.216;2022-07-29T10:03:20;8.75;;;2.38;;
42590;SDS011;28218;53.342;-6.216;2022-07-29T10:06:03;6.55;;;2.35;;
42590;SDS011;28218;53.342;-6.216;2022-07-29T10:08:32;4.00;;;2.35;;
42590;SDS011;28218;53.342;-6.216;2022-07-29T10:11:11;8.15;;;2.47;;
42590;SDS011;28218;53.342;-6.216;2022-07-29T10:13:42;7.78;;;2.42;;
42590;SDS011;28218;53.342;-6.216;2022-07-29T10:16:11;6.00;;;2.45;;
42590;SDS011;28218;53.342;-6.216;2022-07-29T10:18:41;10.10;;;1.60;;
42590;SDS011;28218;53.342;-6.216;2022-07-29T10:21:11;5.05;;;1.92;;
42590;SDS011;28218;53.342;-6.216;2022-07-29T10:24:00;3.60;;;1.83;;
42590;SDS011;28218;53.342;-6.216;2022-07-29T10:26:29;8.95;;;1.80;;
42590;SDS011;28218;53.342;-6.216;2022-07-29T10:28:59;7.05;;;2.30;;
42590;SDS011;28218;53.342;-6.216;2022-07-29T10:31:29;11.77;;;2.03;;
42590;SDS011;28218;53.342;-6.216;2022-07-29T10:34:11;7.18;;;2.10;;
42590;SDS011;28218;53.342;-6.216;2022-07-29T10:36:50;6.25;;;2.53;;
42590;SDS011;28218;53.342;-6.216;2022-07-29T10:39:30;4.82;;;2.50;;
42590;SDS011;28218;53.342;-6.216;2022-07-29T10:42:16;8.07;;;2.33;;
42590;SDS011;28218;53.342;-6.216;2022-07-29T10:45:02;6.97;;;2.30;;
42590;SDS011;28218;53.342;-6.216;2022-07-29T10:47:32;8.57;;;2.67;;
42590;SDS011;28218;53.342;-6.216;2022-07-29T10:50:01;8.70;;;2.20;;
42590;SDS011;28218;53.342;-6.216;2022-07-29T10:55:33;6.53;;;2.25;;
42590;SDS011;28218;53.342;-6.216;2022-07-29T10:58:13;5.18;;;2.55;;
42590;SDS011;28218;53.342;-6.216;2022-07-29T11:00:45;4.78;;;2.33;;
42590;SDS011;28218;53.342;-6.216;2022-07-29T11:06:15;4.60;;;2.00;;
42590;SDS011;28218;53.342;-6.216;2022-07-29T11:09:14;7.80;;;2.85;;
42590;SDS011;28218;53.342;-6.216;2022-07-29T11:11:50;9.85;;;1.95;;
42590;SDS011;28218;53.342;-6.216;2022-07-29T11:14:19;6.68;;;2.42;;
42590;SDS011;28218;53.342;-6.216;2022-07-29T11:17:25;5.25;;;2.03;;
42590;SDS011;28218;53.342;-6.216;2022-07-29T11:20:36;9.27;;;1.80;;
42590;SDS011;28218;53.342;-6.216;2022-07-29T11:26:14;3.42;;;1.42;;
42590;SDS011;28218;53.342;-6.216;2022-07-29T11:28:50;5.03;;;2.08;;
42590;SDS011;28218;53.342;-6.216;2022-07-29T11:31:31;3.85;;;1.30;;
42590;SDS011;28218;53.342;-6.216;2022-07-29T11:34:20;9.93;;;1.58;;
42590;SDS011;28218;53.342;-6.216;2022-07-29T11:40:10;1.88;;;1.10;;
42590;SDS011;28218;53.342;-6.216;2022-07-29T11:42:44;7.72;;;1.60;;
42590;SDS011;28218;53.342;-6.216;2022-07-29T11:45:22;7.78;;;1.55;;
42590;SDS011;28218;53.342;-6.216;2022-07-29T11:48:14;8.52;;;1.52;;
42590;SDS011;28218;53.342;-6.216;2022-07-29T11:50:59;11.73;;;1.80;;
42590;SDS011;28218;53.342;-6.216;2022-07-29T11:53:28;13.85;;;1.65;;
42590;SDS011;28218;53.342;-6.216;2022-07-29T11:55:59;3.00;;;1.73;;
42590;SDS011;28218;53.342;-6.216;2022-07-29T11:58:29;5.53;;;1.50;;
42590;SDS011;28218;53.342;-6.216;2022-07-29T12:00:58;7.97;;;1.50;;
42590;SDS011;28218;53.342;-6.216;2022-07-29T12:03:31;11.00;;;2.55;;
42590;SDS011;28218;53.342;-6.216;2022-07-29T12:06:03;10.07;;;2.20;;
42590;SDS011;28218;53.342;-6.216;2022-07-29T12:08:41;9.43;;;2.50;;
42590;SDS011;28218;53.342;-6.216;2022-07-29T12:11:17;6.40;;;2.10;;
42590;SDS011;28218;53.342;-6.216;2022-07-29T12:13:49;6.53;;;1.42;;
42590;SDS011;28218;53.342;-6.216;2022-07-29T12:16:18;11.13;;;2.28;;
42590;SDS011;28218;53.342;-6.216;2022-07-29T12:18:58;4.45;;;1.60;;
42590;SDS011;28218;53.342;-6.216;2022-07-29T12:21:35;8.02;;;2.28;;
42590;SDS011;28218;53.342;-6.216;2022-07-29T12:24:24;8.30;;;2.15;;
42590;SDS011;28218;53.342;-6.216;2022-07-29T12:26:53;9.27;;;2.85;;
42590;SDS011;28218;53.342;-6.216;2022-07-29T12:29:22;7.22;;;2.60;;
42590;SDS011;28218;53.342;-6.216;2022-07-29T12:32:01;13.82;;;3.25;;
42590;SDS011;28218;53.342;-6.216;2022-07-29T12:34:40;7.88;;;4.07;;
42590;SDS011;28218;53.342;-6.216;2022-07-29T12:37:10;18.23;;;4.15;;
42590;SDS011;28218;53.342;-6.216;2022-07-29T12:39:39;8.02;;;3.33;;
42590;SDS011;28218;53.342;-6.216;2022-07-29T12:42:11;9.38;;;3.67;;
42590;SDS011;28218;53.342;-6.216;2022-07-29T12:44:44;18.13;;;3.97;;
42590;SDS011;28218;53.342;-6.216;2022-07-29T12:47:14;15.88;;;3.50;;
42590;SDS011;28218;53.342;-6.216;2022-07-29T12:49:44;14.93;;;2.90;;
42590;SDS011;28218;53.342;-6.216;2022-07-29T12:52:28;9.55;;;2.55;;
42590;SDS011;28218;53.342;-6.216;2022-07-29T12:54:57;8.68;;;1.35;;
42590;SDS011;28218;53.342;-6.216;2022-07-29T12:57:26;5.05;;;1.52;;
42590;SDS011;28218;53.342;-6.216;2022-07-29T13:00:02;5.75;;;1.52;;
42590;SDS011;28218;53.342;-6.216;2022-07-29T13:02:34;5.57;;;2.00;;
42590;SDS011;28218;53.342;-6.216;2022-07-29T13:05:03;4.38;;;1.60;;
42590;SDS011;28218;53.342;-6.216;2022-07-29T13:07:34;12.32;;;1.67;;
42590;SDS011;28218;53.342;-6.216;2022-07-29T13:10:20;5.25;;;1.40;;
42590;SDS011;28218;53.342;-6.216;2022-07-29T13:13:03;15.88;;;2.38;;
42590;SDS011;28218;53.342;-6.216;2022-07-29T13:15:32;25.83;;;4.07;;
42590;SDS011;28218;53.342;-6.216;2022-07-29T13:18:01;24.73;;;3.97;;
42590;SDS011;28218;53.342;-6.216;2022-07-29T13:20:30;11.20;;;1.95;;
42590;SDS011;28218;53.342;-6.216;2022-07-29T13:23:01;11.45;;;2.05;;
42590;SDS011;28218;53.342;-6.216;2022-07-29T13:25:30;13.18;;;1.75;;
42590;SDS011;28218;53.342;-6.216;2022-07-29T13:30:28;7.43;;;1.05;;
42590;SDS011;28218;53.342;-6.216;2022-07-29T13:32:56;4.65;;;1.58;;
42590;SDS011;28218;53.342;-6.216;2022-07-29T13:35:25;5.63;;;1.13;;
42590;SDS011;28218;53.342;-6.216;2022-07-29T13:37:56;2.38;;;1.08;;
42590;SDS011;28218;53.342;-6.216;2022-07-29T13:40:25;5.25;;;1.30;;
42590;SDS011;28218;53.342;-6.216;2022-07-29T13:45:23;3.30;;;1.08;;
42590;SDS011;28218;53.342;-6.216;2022-07-29T13:47:54;0.60;;;0.52;;
42590;SDS011;28218;53.342;-6.216;2022-07-29T13:50:23;0.60;;;0.57;;
42590;SDS011;28218;53.342;-6.216;2022-07-29T13:52:51;1.70;;;0.60;;
42590;SDS011;28218;53.342;-6.216;2022-07-29T13:55:19;0.85;;;0.52;;
42590;SDS011;28218;53.342;-6.216;2022-07-29T13:57:49;0.60;;;0.60;;
42590;SDS011;28218;53.342;-6.216;2022-07-29T14:00:17;2.05;;;0.65;;
42590;SDS011;28218;53.342;-6.216;2022-07-29T14:02:45;1.73;;;0.60;;
42590;SDS011;28218;53.342;-6.216;2022-07-29T14:05:14;1.35;;;1.00;;
42590;SDS011;28218;53.342;-6.216;2022-07-29T14:07:42;3.90;;;0.60;;
42590;SDS011;28218;53.342;-6.216;2022-07-29T14:10:10;0.57;;;0.57;;
42590;SDS011;28218;53.342;-6.216;2022-07-29T14:12:45;1.05;;;0.80;;
42590;SDS011;28218;53.342;-6.216;2022-07-29T14:15:14;3.35;;;1.00;;
42590;SDS011;28218;53.342;-6.216;2022-07-29T14:17:43;0.88;;;0.77;;
42590;SDS011;28218;53.342;-6.216;2022-07-29T14:20:11;1.00;;;1.00;;
42590;SDS011;28218;53.342;-6.216;2022-07-29T14:22:42;2.25;;;1.05;;
42590;SDS011;28218;53.342;-6.216;2022-07-29T14:25:11;1.60;;;0.60;;
42590;SDS011;28218;53.342;-6.216;2022-07-29T14:27:40;0.68;;;0.60;;
42590;SDS011;28218;53.342;-6.216;2022-07-29T14:30:09;2.03;;;0.80;;
42590;SDS011;28218;53.342;-6.216;2022-07-29T14:32:40;4.03;;;0.73;;
42590;SDS011;28218;53.342;-6.216;2022-07-29T14:35:08;0.50;;;0.50;;
42590;SDS011;28218;53.342;-6.216;2022-07-29T14:37:38;2.28;;;0.80;;
42590;SDS011;28218;53.342;-6.216;2022-07-29T14:40:07;0.77;;;0.57;;
42590;SDS011;28218;53.342;-6.216;2022-07-29T14:42:36;0.60;;;0.60;;
42590;SDS011;28218;53.342;-6.216;2022-07-29T14:45:06;0.65;;;0.65;;
42590;SDS011;28218;53.342;-6.216;2022-07-29T14:47:35;3.33;;;0.90;;
42590;SDS011;28218;53.342;-6.216;2022-07-29T14:50:06;1.42;;;0.77;;
42590;SDS011;28218;53.342;-6.216;2022-07-29T14:55:04;0.77;;;0.77;;
42590;SDS011;28218;53.342;-6.216;2022-07-29T14:57:45;0.73;;;0.70;;
42590;SDS011;28218;53.342;-6.216;2022-07-29T15:00:14;1.52;;;0.95;;
42590;SDS011;28218;53.342;-6.216;2022-07-29T15:02:43;0.70;;;0.70;;
42590;SDS011;28218;53.342;-6.216;2022-07-29T15:05:29;0.70;;;0.45;;
42590;SDS011;28218;53.342;-6.216;2022-07-29T15:07:57;6.75;;;0.80;;
42590;SDS011;28218;53.342;-6.216;2022-07-29T15:10:26;1.10;;;0.60;;
42590;SDS011;28218;53.342;-6.216;2022-07-29T15:12:55;0.57;;;0.57;;
42590;SDS011;28218;53.342;-6.216;2022-07-29T15:15:23;0.95;;;0.70;;
42590;SDS011;28218;53.342;-6.216;2022-07-29T15:17:52;1.30;;;0.75;;
42590;SDS011;28218;53.342;-6.216;2022-07-29T15:20:21;1.65;;;1.40;;
42590;SDS011;28218;53.342;-6.216;2022-07-29T15:22:53;1.67;;;0.73;;
42590;SDS011;28218;53.342;-6.216;2022-07-29T15:25:22;2.60;;;0.70;;
42590;SDS011;28218;53.342;-6.216;2022-07-29T15:27:50;1.63;;;0.60;;
42590;SDS011;28218;53.342;-6.216;2022-07-29T15:30:24;1.05;;;0.70;;
42590;SDS011;28218;53.342;-6.216;2022-07-29T15:32:58;0.50;;;0.50;;